createdAt,value
2018-09-27T00:00:01.852Z,1.67
2018-09-27T00:02:32.689Z,1.50
2018-09-27T00:05:02.816Z,1.90
2018-09-27T00:07:33.228Z,1.57
2018-09-27T00:10:03.743Z,1.67
2018-09-27T00:12:34.570Z,1.73
2018-09-27T00:15:04.743Z,2.07
2018-09-27T00:17:34.850Z,1.77
2018-09-27T00:20:06.814Z,1.40
2018-09-27T00:22:37.111Z,1.80
2018-09-27T00:25:07.313Z,1.90
2018-09-27T00:27:37.280Z,1.50
2018-09-27T00:30:08.128Z,1.40
2018-09-27T00:32:38.836Z,1.83
2018-09-27T00:35:08.674Z,1.90
2018-09-27T00:37:39.342Z,1.93
2018-09-27T00:40:09.456Z,1.57
2018-09-27T00:42:40.315Z,1.70
2018-09-27T00:45:10.430Z,1.83
2018-09-27T00:47:40.281Z,2.00
2018-09-27T00:50:11.990Z,1.83
2018-09-27T00:52:42.930Z,1.80
2018-09-27T00:55:12.992Z,1.77
2018-09-27T00:57:43.649Z,2.63
2018-09-27T01:00:14.483Z,1.93
2018-09-27T01:02:45.036Z,1.73
2018-09-27T01:05:15.270Z,1.77
2018-09-27T01:07:46.346Z,1.83
2018-09-27T01:10:17.483Z,1.70
2018-09-27T01:12:49.184Z,2.03
2018-09-27T01:15:21.054Z,2.10
2018-09-27T01:17:51.541Z,2.20
2018-09-27T01:20:23.210Z,2.20
2018-09-27T01:22:54.650Z,1.70
2018-09-27T01:25:24.612Z,2.13
2018-09-27T01:27:55.480Z,1.83
2018-09-27T01:30:25.917Z,1.90
2018-09-27T01:32:57.130Z,1.77
2018-09-27T01:35:27.658Z,2.27
2018-09-27T01:37:58.621Z,2.30
2018-09-27T01:40:28.628Z,2.57
2018-09-27T01:42:58.956Z,2.30
2018-09-27T01:45:29.455Z,2.20
2018-09-27T01:48:02.270Z,2.77
2018-09-27T01:50:32.527Z,2.13
2018-09-27T01:53:03.729Z,2.20
2018-09-27T01:55:34.571Z,2.40
2018-09-27T01:58:04.712Z,2.20
2018-09-27T02:00:35.107Z,2.27
2018-09-27T02:03:07.232Z,2.60
2018-09-27T02:05:37.513Z,2.40
2018-09-27T02:08:07.607Z,2.53
2018-09-27T02:10:37.828Z,2.30
2018-09-27T02:13:07.971Z,2.47
2018-09-27T02:15:38.322Z,2.67
2018-09-27T02:18:08.340Z,2.13
2018-09-27T02:20:38.523Z,2.07
2018-09-27T02:23:08.625Z,2.67
2018-09-27T02:25:38.663Z,2.37
2018-09-27T02:28:09.751Z,2.70
2018-09-27T02:30:40.068Z,2.77
2018-09-27T02:33:11.063Z,2.10
2018-09-27T02:35:42.036Z,2.53
2018-09-27T02:38:13.461Z,2.17
2018-09-27T02:40:44.025Z,3.13
2018-09-27T02:43:15.260Z,2.90
2018-09-27T02:45:45.298Z,3.23
2018-09-27T02:48:16.895Z,2.70
2018-09-27T02:50:47.910Z,2.93
2018-09-27T02:53:18.304Z,2.20
2018-09-27T02:55:48.977Z,3.20
2018-09-27T02:58:19.845Z,2.67
2018-09-27T03:00:49.909Z,2.60
2018-09-27T03:03:21.001Z,3.20
2018-09-27T03:05:52.109Z,2.37
2018-09-27T03:08:22.491Z,2.83
2018-09-27T03:10:53.018Z,2.90
2018-09-27T03:13:23.224Z,2.60
2018-09-27T03:15:54.454Z,3.00
2018-09-27T03:18:25.359Z,3.30
2018-09-27T03:20:56.738Z,2.80
2018-09-27T03:23:28.166Z,3.40
2018-09-27T03:25:59.429Z,2.73
2018-09-27T03:28:30.405Z,3.17
2018-09-27T03:31:00.998Z,3.10
2018-09-27T03:33:31.467Z,3.00
2018-09-27T03:36:02.617Z,4.17
2018-09-27T03:38:33.583Z,2.90
2018-09-27T03:41:04.507Z,3.00
2018-09-27T03:43:35.201Z,3.13
2018-09-27T03:46:06.245Z,2.70
2018-09-27T03:48:37.571Z,3.23
2018-09-27T03:51:08.426Z,3.00
2018-09-27T03:53:39.365Z,2.57
2018-09-27T03:56:12.335Z,2.60
2018-09-27T03:58:44.782Z,2.80
2018-09-27T04:01:17.421Z,2.77
2018-09-27T04:03:48.498Z,3.07
2018-09-27T04:06:19.488Z,2.73
2018-09-27T04:08:51.546Z,3.37
2018-09-27T04:11:23.122Z,2.80
2018-09-27T04:13:55.276Z,3.10
2018-09-27T04:16:25.414Z,3.20
2018-09-27T04:18:56.302Z,3.00
2018-09-27T04:21:27.400Z,3.00
2018-09-27T04:23:58.471Z,3.67
2018-09-27T04:26:28.650Z,3.30
2018-09-27T04:28:58.644Z,3.40
2018-09-27T04:31:29.991Z,2.93
2018-09-27T04:34:01.076Z,3.47
2018-09-27T04:36:31.965Z,3.23
2018-09-27T04:39:03.067Z,3.10
2018-09-27T04:41:33.899Z,3.23
2018-09-27T04:44:04.716Z,2.63
2018-09-27T04:46:35.627Z,2.93
2018-09-27T04:49:06.888Z,3.30
2018-09-27T04:51:37.846Z,3.40
2018-09-27T04:54:08.486Z,2.70
2018-09-27T04:56:40.872Z,2.87
2018-09-27T04:59:12.664Z,3.30
2018-09-27T05:01:43.663Z,3.07
2018-09-27T05:04:13.870Z,3.00
2018-09-27T05:06:45.271Z,3.40
2018-09-27T05:09:16.370Z,3.07
2018-09-27T05:11:46.522Z,3.23
2018-09-27T05:15:47.724Z,3.00
2018-09-27T05:18:18.824Z,3.23
2018-09-27T05:20:49.899Z,3.40
2018-09-27T05:23:20.066Z,2.90
2018-09-27T05:25:50.258Z,2.47
2018-09-27T05:28:21.184Z,3.03
2018-09-27T05:30:52.155Z,3.13
2018-09-27T05:33:22.309Z,3.00
2018-09-27T05:35:52.712Z,2.90
2018-09-27T05:38:23.916Z,3.40
2018-09-27T05:40:55.265Z,2.80
2018-09-27T05:43:25.900Z,3.27
2018-09-27T05:45:57.056Z,3.07
2018-09-27T05:48:27.548Z,3.13
2018-09-27T05:50:58.946Z,3.00
2018-09-27T05:53:30.221Z,3.13
2018-09-27T05:56:01.493Z,3.30
2018-09-27T05:58:31.745Z,3.23
2018-09-27T06:01:01.974Z,3.50
2018-09-27T06:03:31.896Z,3.20
2018-09-27T06:06:03.115Z,3.23
2018-09-27T06:08:33.148Z,3.47
2018-09-27T06:11:05.398Z,2.80
2018-09-27T06:13:35.876Z,3.37
2018-09-27T06:16:07.325Z,3.40
2018-09-27T06:18:38.892Z,2.70
2018-09-27T06:21:09.727Z,2.97
2018-09-27T06:23:40.758Z,2.70
2018-09-27T06:26:14.143Z,2.87
2018-09-27T06:28:45.189Z,3.03
2018-09-27T06:31:15.042Z,2.50
2018-09-27T06:33:44.889Z,3.40
2018-09-27T06:36:16.017Z,2.80
2018-09-27T06:38:47.098Z,3.13
2018-09-27T06:41:17.867Z,3.10
2018-09-27T06:43:48.438Z,2.83
2018-09-27T06:46:17.479Z,2.70
2018-09-27T06:48:47.705Z,2.93
2018-09-27T06:51:16.395Z,3.13
2018-09-27T06:53:46.256Z,3.33
2018-09-27T06:56:15.973Z,2.90
2018-09-27T06:58:45.357Z,2.93
2018-09-27T07:01:14.651Z,3.37
2018-09-27T07:03:44.819Z,3.13
2018-09-27T07:06:13.972Z,2.67
2018-09-27T07:08:44.871Z,3.13
2018-09-27T07:11:15.765Z,2.63
2018-09-27T07:13:45.832Z,2.93
2018-09-27T07:16:16.287Z,2.70
2018-09-27T07:18:48.025Z,3.00
2018-09-27T07:21:18.072Z,3.43
2018-09-27T07:23:48.272Z,2.50
2018-09-27T07:26:18.805Z,2.93
2018-09-27T07:28:48.935Z,3.33
2018-09-27T07:31:18.865Z,3.13
2018-09-27T07:33:48.978Z,3.23
2018-09-27T07:36:18.976Z,2.80
2018-09-27T07:38:48.471Z,2.73
2018-09-27T07:41:18.474Z,3.63
2018-09-27T07:43:48.273Z,2.53
2018-09-27T07:46:18.344Z,3.20
2018-09-27T07:48:47.996Z,3.20
2018-09-27T07:51:18.200Z,3.87
2018-09-27T07:53:47.881Z,3.23
2018-09-27T07:56:17.771Z,3.40
2018-09-27T07:58:47.942Z,3.13
2018-09-27T08:01:17.613Z,3.37
2018-09-27T08:03:48.453Z,3.47
2018-09-27T08:06:18.977Z,3.20
2018-09-27T08:08:49.398Z,3.23
2018-09-27T08:11:19.675Z,3.90
2018-09-27T08:13:49.779Z,2.97
2018-09-27T08:16:19.840Z,3.20
2018-09-27T08:18:51.165Z,3.53
2018-09-27T08:21:21.130Z,3.13
2018-09-27T08:23:51.017Z,3.20
2018-09-27T08:26:19.666Z,3.20
2018-09-27T08:28:49.732Z,3.20
2018-09-27T08:31:19.965Z,3.40
2018-09-27T08:33:50.016Z,3.03
2018-09-27T08:36:20.037Z,3.47
2018-09-27T08:38:50.801Z,3.50
2018-09-27T08:41:21.532Z,3.83
2018-09-27T08:43:51.570Z,3.27
2018-09-27T08:46:21.568Z,3.00
2018-09-27T08:48:51.962Z,3.00
2018-09-27T08:51:22.110Z,3.07
2018-09-27T08:53:52.740Z,2.90
2018-09-27T08:56:22.823Z,2.80
2018-09-27T08:58:53.902Z,2.60
2018-09-27T09:01:23.877Z,2.87
2018-09-27T09:03:53.961Z,2.60
2018-09-27T09:06:24.129Z,2.87
2018-09-27T09:08:53.967Z,2.27
2018-09-27T09:11:24.035Z,2.60
2018-09-27T09:13:54.309Z,2.70
2018-09-27T09:16:23.868Z,2.20
2018-09-27T09:18:53.937Z,2.35
2018-09-27T09:21:23.948Z,2.40
2018-09-27T09:23:54.066Z,2.60
2018-09-27T09:26:24.163Z,1.95
2018-09-27T09:28:53.212Z,2.10
2018-09-27T09:31:22.538Z,1.92
2018-09-27T09:33:52.417Z,2.00
2018-09-27T09:36:22.675Z,1.90
2018-09-27T09:38:52.603Z,2.00
2018-09-27T09:41:22.993Z,1.82
2018-09-27T09:43:52.825Z,1.47
2018-09-27T09:46:22.962Z,1.40
2018-09-27T09:48:53.848Z,1.50
2018-09-27T09:51:24.466Z,1.90
2018-09-27T09:53:54.248Z,1.85
2018-09-27T09:56:24.114Z,1.98
2018-09-27T09:58:53.883Z,1.50
2018-09-27T10:01:23.532Z,1.67
2018-09-27T10:03:52.690Z,1.42
2018-09-27T10:06:22.339Z,1.85
2018-09-27T10:08:52.023Z,2.00
2018-09-27T10:11:21.759Z,1.75
2018-09-27T10:13:51.574Z,1.90
2018-09-27T10:16:21.337Z,1.85
2018-09-27T10:18:51.021Z,1.70
2018-09-27T10:21:21.060Z,1.40
2018-09-27T10:23:50.874Z,1.40
2018-09-27T10:26:20.994Z,1.47
2018-09-27T10:28:51.474Z,1.10
2018-09-27T10:31:21.461Z,1.22
2018-09-27T10:33:51.495Z,1.12
2018-09-27T10:36:21.357Z,1.22
2018-09-27T10:38:51.363Z,1.00
2018-09-27T10:41:21.360Z,1.00
2018-09-27T10:43:51.113Z,1.02
2018-09-27T10:46:20.927Z,1.45
2018-09-27T10:48:50.830Z,1.22
2018-09-27T10:51:20.085Z,1.40
2018-09-27T10:53:50.900Z,1.13
2018-09-27T10:56:20.864Z,1.17
2018-09-27T10:58:50.763Z,1.47
2018-09-27T11:01:20.720Z,1.03
2018-09-27T11:03:50.780Z,1.10
2018-09-27T11:06:20.625Z,0.90
2018-09-27T11:08:50.311Z,1.00
2018-09-27T11:11:20.342Z,1.13
2018-09-27T11:13:50.480Z,1.30
2018-09-27T11:16:20.941Z,1.37
2018-09-27T11:18:51.753Z,1.30
2018-09-27T11:21:21.716Z,1.33
2018-09-27T11:23:51.529Z,1.40
2018-09-27T11:26:21.639Z,1.60
2018-09-27T11:28:56.246Z,1.00
2018-09-27T11:31:31.774Z,1.30
2018-09-27T11:34:01.879Z,1.20
2018-09-27T11:36:32.200Z,1.23
2018-09-27T11:39:01.673Z,1.20
2018-09-27T11:41:33.323Z,1.30
2018-09-27T11:44:03.534Z,1.30
2018-09-27T11:46:33.112Z,1.20
2018-09-27T11:49:03.248Z,1.23
2018-09-27T11:51:34.019Z,1.53
2018-09-27T11:54:04.135Z,1.23
2018-09-27T11:56:33.411Z,1.20
2018-09-27T11:59:03.679Z,1.50
2018-09-27T12:01:34.342Z,1.40
2018-09-27T12:04:03.859Z,1.40
2018-09-27T12:06:34.011Z,1.50
2018-09-27T12:09:05.777Z,1.40
2018-09-27T12:11:35.795Z,1.37
2018-09-27T12:14:06.706Z,1.50
2018-09-27T12:16:36.856Z,1.50
2018-09-27T12:19:07.388Z,1.60
2018-09-27T12:21:37.390Z,1.30
2018-09-27T12:24:07.452Z,1.53
2018-09-27T12:26:37.392Z,1.90
2018-09-27T12:29:07.731Z,1.77
2018-09-27T12:31:38.296Z,1.60
2018-09-27T12:34:09.255Z,2.00
2018-09-27T12:36:38.852Z,1.90
2018-09-27T12:39:11.062Z,2.13
2018-09-27T12:41:41.049Z,2.47
2018-09-27T12:44:11.240Z,2.10
2018-09-27T12:46:41.174Z,1.97
2018-09-27T12:49:11.079Z,1.93
2018-09-27T12:51:41.139Z,1.87
2018-09-27T12:54:11.651Z,1.87
2018-09-27T12:56:42.683Z,2.00
2018-09-27T12:59:12.852Z,1.90
2018-09-27T13:01:43.113Z,1.90
2018-09-27T13:04:12.858Z,1.67
2018-09-27T13:06:42.817Z,1.80
2018-09-27T13:09:12.924Z,1.93
2018-09-27T13:11:44.183Z,2.00
2018-09-27T13:14:14.867Z,1.83
2018-09-27T13:16:45.416Z,2.20
2018-09-27T13:19:15.471Z,1.70
2018-09-27T13:21:48.237Z,2.37
2018-09-27T13:24:18.111Z,1.60
2018-09-27T13:26:47.343Z,2.20
2018-09-27T13:29:18.035Z,1.80
2018-09-27T13:31:47.558Z,1.83
2018-09-27T13:34:17.128Z,2.17
2018-09-27T13:36:46.667Z,3.03
2018-09-27T13:39:16.519Z,4.33
2018-09-27T13:41:47.238Z,2.40
2018-09-27T13:44:16.294Z,2.53
2018-09-27T13:46:46.346Z,2.80
2018-09-27T13:49:16.868Z,2.60
2018-09-27T13:51:46.531Z,5.17
2018-09-27T13:54:16.345Z,3.20
2018-09-27T13:56:46.752Z,2.53
2018-09-27T13:59:16.323Z,4.00
2018-09-27T14:01:46.438Z,8.40
2018-09-27T14:04:15.923Z,3.77
2018-09-27T14:06:45.889Z,4.87
2018-09-27T14:09:16.213Z,4.30
2018-09-27T14:11:45.996Z,2.83
2018-09-27T14:14:15.529Z,3.60
2018-09-27T14:16:46.704Z,4.30
2018-09-27T14:19:18.521Z,4.20
2018-09-27T14:21:47.717Z,3.80
2018-09-27T14:24:18.561Z,3.23
2018-09-27T14:26:49.695Z,2.67
2018-09-27T14:29:19.889Z,2.43
2018-09-27T14:31:49.222Z,3.03
2018-09-27T14:34:18.920Z,2.97
2018-09-27T14:36:48.453Z,2.60
2018-09-27T14:39:17.746Z,2.30
2018-09-27T14:41:47.536Z,2.03
2018-09-27T14:44:17.659Z,2.40
2018-09-27T14:46:47.124Z,1.83
2018-09-27T14:49:16.513Z,1.97
2018-09-27T14:51:45.405Z,2.37
2018-09-27T14:54:15.837Z,2.10
2018-09-27T14:56:45.661Z,2.07
2018-09-27T14:59:15.612Z,2.43
2018-09-27T15:01:45.062Z,5.17
2018-09-27T15:04:14.582Z,2.47
2018-09-27T15:06:44.085Z,2.70
2018-09-27T15:09:13.922Z,2.30
2018-09-27T15:11:43.824Z,2.70
2018-09-27T15:14:13.201Z,2.67
2018-09-27T15:16:42.625Z,2.67
2018-09-27T15:19:12.020Z,3.23
2018-09-27T15:21:41.883Z,2.50
2018-09-27T15:24:12.453Z,3.00
2018-09-27T15:26:44.235Z,2.60
2018-09-27T15:29:14.757Z,3.23
2018-09-27T15:31:44.231Z,2.57
2018-09-27T15:34:14.282Z,2.83
2018-09-27T15:36:43.428Z,3.13
2018-09-27T15:39:12.966Z,2.87
2018-09-27T15:41:42.699Z,3.17
2018-09-27T15:44:12.301Z,3.03
2018-09-27T15:46:41.927Z,6.77
2018-09-27T15:49:11.827Z,5.40
2018-09-27T15:51:40.841Z,3.40
2018-09-27T15:54:09.782Z,3.93
2018-09-27T15:56:39.363Z,2.97
2018-09-27T15:59:08.931Z,5.77
2018-09-27T16:01:38.381Z,6.60
2018-09-27T16:04:07.644Z,6.67
2018-09-27T16:06:37.988Z,4.23
2018-09-27T16:09:08.931Z,3.10
2018-09-27T16:11:38.026Z,4.50
2018-09-27T16:14:08.219Z,8.60
2018-09-27T16:16:38.321Z,4.63
2018-09-27T16:19:07.270Z,10.23
2018-09-27T16:21:36.201Z,11.77
2018-09-27T16:24:06.446Z,10.30
2018-09-27T16:26:37.396Z,3.87
2018-09-27T16:29:07.547Z,15.37
2018-09-27T16:31:38.116Z,9.77
2018-09-27T16:34:07.682Z,4.90
2018-09-27T16:36:38.984Z,3.40
2018-09-27T16:39:12.474Z,12.67
2018-09-27T16:41:43.354Z,9.07
2018-09-27T16:44:14.863Z,8.87
2018-09-27T16:46:45.006Z,6.47
2018-09-27T16:49:14.935Z,5.53
2018-09-27T16:51:44.524Z,4.50
2018-09-27T16:54:14.491Z,4.60
2018-09-27T16:56:44.499Z,4.03
2018-09-27T16:59:15.382Z,3.97
2018-09-27T17:01:46.203Z,3.80
2018-09-27T17:04:16.118Z,3.97
2018-09-27T17:06:46.479Z,3.17
2018-09-27T17:09:16.182Z,3.57
2018-09-27T17:11:45.783Z,3.10
2018-09-27T17:14:16.430Z,2.87
2018-09-27T17:16:46.128Z,3.17
2018-09-27T17:19:17.620Z,2.90
2018-09-27T17:21:47.704Z,4.20
2018-09-27T17:24:17.783Z,3.03
2018-09-27T17:26:47.271Z,3.23
2018-09-27T17:29:17.355Z,3.63
2018-09-27T17:31:47.371Z,3.13
2018-09-27T17:34:17.311Z,3.30
2018-09-27T17:36:48.122Z,3.73
2018-09-27T17:39:18.111Z,3.90
2018-09-27T17:41:48.185Z,3.73
2018-09-27T17:44:17.947Z,3.67
2018-09-27T17:53:49.550Z,3.30
2018-09-27T17:56:19.431Z,2.77
2018-09-27T17:58:49.852Z,3.50
2018-09-27T18:01:19.616Z,3.47
2018-09-27T18:03:48.688Z,3.40
2018-09-27T18:06:19.001Z,3.30
2018-09-27T18:08:49.475Z,3.20
2018-09-27T18:11:19.939Z,3.40
2018-09-27T18:13:49.775Z,3.00
2018-09-27T18:16:20.892Z,4.40
2018-09-27T18:18:51.625Z,4.20
2018-09-27T18:21:22.465Z,8.17
2018-09-27T18:23:52.827Z,4.10
2018-09-27T18:26:22.572Z,3.67
2018-09-27T18:28:52.868Z,3.17
2018-09-27T18:31:22.407Z,2.60
2018-09-27T18:33:52.399Z,2.80
2018-09-27T18:36:23.462Z,5.83
2018-09-27T18:38:53.583Z,5.73
2018-09-27T18:41:24.162Z,14.60
2018-09-27T18:43:54.475Z,10.63
2018-09-27T18:46:25.223Z,5.43
2018-09-27T18:48:56.018Z,5.57
2018-09-27T18:51:25.821Z,4.40
2018-09-27T18:53:55.667Z,3.57
2018-09-27T18:56:25.169Z,2.97
2018-09-27T18:58:54.555Z,3.60
2018-09-27T19:01:24.981Z,3.30
2018-09-27T19:03:54.673Z,3.40
2018-09-27T19:06:25.086Z,2.80
2018-09-27T19:08:54.391Z,2.90
2018-09-27T19:11:24.686Z,2.90
2018-09-27T19:13:54.734Z,3.07
2018-09-27T19:16:24.964Z,2.90
2018-09-27T19:18:55.559Z,3.07
2018-09-27T19:21:25.514Z,3.00
2018-09-27T19:23:56.249Z,3.00
2018-09-27T19:26:26.405Z,3.30
2018-09-27T19:28:58.010Z,3.17
2018-09-27T19:31:27.791Z,2.90
2018-09-27T19:33:57.340Z,2.77
2018-09-27T19:36:26.737Z,3.47
2018-09-27T19:38:56.666Z,3.40
2018-09-27T19:41:26.425Z,2.93
2018-09-27T19:43:56.239Z,3.30
2018-09-27T19:46:26.809Z,3.20
2018-09-27T19:48:57.150Z,2.90
2018-09-27T19:51:27.320Z,2.83
2018-09-27T19:53:57.107Z,3.07
2018-09-27T19:56:27.936Z,6.43
2018-09-27T19:58:58.573Z,6.13
2018-09-27T20:01:28.496Z,7.27
2018-09-27T20:03:58.656Z,11.67
2018-09-27T20:06:28.294Z,8.37
2018-09-27T20:08:57.892Z,7.17
2018-09-27T20:11:26.920Z,4.63
2018-09-27T20:13:57.711Z,4.57
2018-09-27T20:16:27.175Z,4.13
2018-09-27T20:18:56.733Z,4.70
2018-09-27T20:21:25.712Z,5.03
2018-09-27T20:23:54.118Z,3.93
2018-09-27T20:26:23.933Z,3.77
2018-09-27T20:28:53.598Z,5.20
2018-09-27T20:31:24.136Z,6.27
2018-09-27T20:33:53.463Z,4.23
2018-09-27T20:36:23.646Z,3.87
2018-09-27T20:38:55.317Z,4.40
2018-09-27T20:41:25.801Z,3.53
2018-09-27T20:43:54.966Z,3.77
2018-09-27T20:46:24.758Z,4.30
2018-09-27T20:48:54.956Z,4.70
2018-09-27T20:51:25.325Z,3.83
2018-09-27T20:53:55.437Z,3.17
2018-09-27T20:56:25.418Z,4.83
2018-09-27T20:58:55.634Z,7.67
2018-09-27T21:01:25.704Z,6.50
2018-09-27T21:03:57.681Z,3.80
2018-09-27T21:06:27.176Z,4.23
2018-09-27T21:08:56.474Z,3.60
2018-09-27T21:11:27.103Z,3.73
2018-09-27T21:13:57.853Z,4.63
2018-09-27T21:16:27.912Z,7.60
2018-09-27T21:18:57.452Z,4.67
2018-09-27T21:21:27.450Z,4.13
2018-09-27T21:23:57.294Z,3.80
2018-09-27T21:26:28.371Z,3.60
2018-09-27T21:28:58.300Z,4.27
2018-09-27T21:31:28.172Z,3.67
2018-09-27T21:33:58.347Z,3.50
2018-09-27T21:36:28.354Z,4.17
2018-09-27T21:38:59.315Z,3.27
2018-09-27T21:41:29.473Z,3.67
2018-09-27T21:43:58.953Z,2.97
2018-09-27T21:46:32.129Z,3.83
2018-09-27T21:49:01.981Z,3.10
2018-09-27T21:51:31.700Z,3.37
2018-09-27T21:54:01.988Z,3.23
2018-09-27T21:56:32.204Z,3.70
2018-09-27T21:59:03.291Z,3.07
2018-09-27T22:01:33.646Z,3.00
2018-09-27T22:04:03.875Z,2.67
2018-09-27T22:06:33.826Z,3.53
2018-09-27T22:09:05.860Z,3.40
2018-09-27T22:11:35.554Z,3.30
2018-09-27T22:14:05.682Z,3.17
2018-09-27T22:16:35.765Z,2.97
2018-09-27T22:19:06.858Z,3.27
2018-09-27T22:21:37.526Z,3.30
2018-09-27T22:24:07.708Z,3.63
2018-09-27T22:26:37.924Z,3.33
2018-09-27T22:29:10.048Z,3.20
2018-09-27T22:31:40.279Z,3.27
2018-09-27T22:34:10.514Z,3.47
2018-09-27T22:36:41.644Z,2.93
2018-09-27T22:39:12.417Z,3.10
2018-09-27T22:41:42.579Z,2.83
2018-09-27T22:44:12.536Z,2.80
2018-09-27T22:46:43.768Z,2.67
2018-09-27T22:49:14.607Z,3.20
2018-09-27T22:51:44.556Z,2.60
2018-09-27T22:54:15.745Z,3.37
2018-09-27T22:56:47.421Z,6.10
2018-09-27T22:59:17.646Z,4.93
2018-09-27T23:01:48.009Z,3.90
2018-09-27T23:04:18.289Z,4.93
2018-09-27T23:06:48.961Z,4.70
2018-09-27T23:09:18.933Z,5.63
2018-09-27T23:11:49.619Z,3.00
2018-09-27T23:14:20.328Z,3.53
2018-09-27T23:16:50.469Z,3.23
2018-09-27T23:19:20.791Z,3.03
2018-09-27T23:21:51.588Z,2.77
2018-09-27T23:24:22.367Z,3.10
2018-09-27T23:26:53.491Z,3.00
2018-09-27T23:29:23.828Z,3.30
2018-09-27T23:31:54.399Z,3.37
2018-09-27T23:34:24.690Z,3.30
2018-09-27T23:36:55.617Z,3.80
2018-09-27T23:39:26.234Z,2.87
2018-09-27T23:41:56.905Z,3.30
2018-09-27T23:44:27.649Z,3.00
2018-09-27T23:46:58.184Z,2.97
2018-09-27T23:49:29.094Z,3.60
2018-09-27T23:51:59.364Z,3.73
2018-09-27T23:54:29.989Z,2.70
2018-09-27T23:57:00.134Z,3.30
2018-09-27T23:59:30.044Z,3.33
